createdAt,value
2022-11-30T00:01:53.769Z,1.8
2022-11-30T00:03:52.017Z,1.8
2022-11-30T00:05:51.021Z,1.8
2022-11-30T00:07:53.769Z,1.9
2022-11-30T00:09:50.886Z,1.8
2022-11-30T00:11:50.443Z,1.7
2022-11-30T00:13:53.873Z,1.8
2022-11-30T00:15:47.194Z,1.8
2022-11-30T00:17:47.260Z,1.7
2022-11-30T00:21:47.460Z,1.8
2022-11-30T00:23:48.521Z,1.6
2022-11-30T00:25:53.828Z,1.6
2022-11-30T00:27:47.219Z,1.6
2022-11-30T00:29:47.185Z,1.6
2022-11-30T00:33:49.813Z,1.5
2022-11-30T00:35:53.232Z,1.5
2022-11-30T00:39:49.441Z,1.5
2022-11-30T00:41:49.932Z,1.6
2022-11-30T00:43:52.619Z,1.5
2022-11-30T00:45:49.506Z,1.6
2022-11-30T00:47:50.874Z,1.6
2022-11-30T00:49:54.445Z,1.7
2022-11-30T00:51:50.065Z,1.6
2022-11-30T00:53:53.071Z,1.6
2022-11-30T00:55:51.968Z,1.7
2022-11-30T00:57:53.204Z,1.6
2022-11-30T00:59:51.340Z,1.6
2022-11-30T01:03:50.596Z,1.6
2022-11-30T01:05:50.766Z,1.6
2022-11-30T01:09:47.594Z,1.7
2022-11-30T01:11:49.797Z,1.7
2022-11-30T01:17:53.646Z,1.8
2022-11-30T01:19:54.174Z,1.9
2022-11-30T01:21:53.820Z,1.9
2022-11-30T01:23:47.567Z,1.9
2022-11-30T01:25:47.604Z,1.9
2022-11-30T01:29:51.316Z,2
2022-11-30T01:31:50.852Z,1.9
2022-11-30T01:33:53.572Z,1.8
2022-11-30T01:35:49.062Z,1.9
2022-11-30T01:37:51.665Z,2
2022-11-30T01:43:53.852Z,1.9
2022-11-30T01:45:49.457Z,2
2022-11-30T01:47:53.688Z,2
2022-11-30T01:49:51.551Z,2
2022-11-30T01:51:51.278Z,2
2022-11-30T01:53:53.755Z,2.1
2022-11-30T01:55:50.782Z,2.2
2022-11-30T01:57:50.756Z,2.1
2022-11-30T01:59:53.830Z,2.1
2022-11-30T02:01:47.638Z,2.2
2022-11-30T02:03:52.182Z,2.1
2022-11-30T02:07:50.591Z,2
2022-11-30T02:09:51.917Z,2
2022-11-30T02:11:53.830Z,2.1
2022-11-30T02:13:47.599Z,2.1
2022-11-30T02:15:51.027Z,2
2022-11-30T02:17:53.823Z,2
2022-11-30T02:19:47.604Z,2.1
2022-11-30T02:21:51.019Z,2.1
2022-11-30T02:23:53.253Z,2.1
2022-11-30T02:25:53.214Z,2
2022-11-30T02:29:53.436Z,2
2022-11-30T02:31:50.788Z,1.9
2022-11-30T02:33:51.059Z,1.9
2022-11-30T02:35:55.218Z,1.9
2022-11-30T02:37:49.080Z,2
2022-11-30T02:39:47.576Z,1.9
2022-11-30T02:43:50.050Z,1.9
2022-11-30T02:47:53.724Z,1.8
2022-11-30T02:49:47.604Z,1.8
2022-11-30T02:51:47.576Z,1.9
2022-11-30T02:55:53.455Z,1.8
2022-11-30T02:57:49.476Z,1.9
2022-11-30T03:01:51.730Z,1.8
2022-11-30T03:03:47.593Z,1.8
2022-11-30T03:05:53.816Z,1.9
2022-11-30T03:07:52.134Z,2
2022-11-30T03:09:47.587Z,2
2022-11-30T03:11:53.539Z,1.9
2022-11-30T03:13:52.633Z,1.8
2022-11-30T03:15:47.612Z,1.9
2022-11-30T03:17:53.872Z,1.9
2022-11-30T03:19:50.189Z,2
2022-11-30T03:21:49.772Z,1.9
2022-11-30T03:25:52.299Z,2
2022-11-30T03:27:47.619Z,2
2022-11-30T03:29:53.370Z,2
2022-11-30T03:31:47.626Z,2
2022-11-30T03:33:49.817Z,2
2022-11-30T03:35:53.856Z,2.1
2022-11-30T03:37:49.443Z,2.1
2022-11-30T03:39:58.293Z,2.1
2022-11-30T03:45:52.752Z,2.2
2022-11-30T03:47:53.596Z,2.1
2022-11-30T03:49:49.076Z,2.2
2022-11-30T03:51:53.050Z,2.2
2022-11-30T03:53:52.733Z,2.2
2022-11-30T03:55:50.382Z,2.1
2022-11-30T03:57:53.558Z,2.2
2022-11-30T04:01:50.824Z,2.3
2022-11-30T04:05:53.255Z,2.3
2022-11-30T04:07:52.738Z,2.3
2022-11-30T04:09:53.697Z,2.2
2022-11-30T04:11:53.661Z,2.2
2022-11-30T04:13:50.918Z,2.2
2022-11-30T04:15:53.704Z,2.3
2022-11-30T04:17:53.777Z,2.3
2022-11-30T04:19:49.837Z,2.3
2022-11-30T04:23:52.842Z,2.2
2022-11-30T04:25:51.236Z,2.3
2022-11-30T04:31:47.634Z,2.3
2022-11-30T04:33:53.276Z,2.3
2022-11-30T04:35:51.148Z,2.2
2022-11-30T04:37:48.526Z,2.2
2022-11-30T04:39:51.172Z,2.3
2022-11-30T04:41:52.858Z,2.3
2022-11-30T04:43:51.731Z,2.4
2022-11-30T04:45:53.085Z,2.4
2022-11-30T04:47:54.092Z,2.3
2022-11-30T04:49:47.279Z,2.3
2022-11-30T04:51:52.284Z,2.4
2022-11-30T04:55:50.567Z,2.4
2022-11-30T04:57:53.236Z,2.4
2022-11-30T05:01:53.876Z,2.5
2022-11-30T05:05:52.590Z,2.4
2022-11-30T05:07:49.543Z,2.4
2022-11-30T05:09:52.463Z,2.3
2022-11-30T05:13:47.637Z,2.3
2022-11-30T05:17:53.800Z,2.4
2022-11-30T05:19:49.519Z,2.5
2022-11-30T05:25:50.483Z,2.5
2022-11-30T05:29:53.111Z,2.3
2022-11-30T05:31:49.143Z,2.4
2022-11-30T05:37:51.962Z,2.5
2022-11-30T05:39:53.700Z,2.5
2022-11-30T05:41:53.531Z,2.4
2022-11-30T05:43:50.585Z,2.4
2022-11-30T05:45:52.549Z,2.5
2022-11-30T05:47:53.639Z,2.5
2022-11-30T05:49:53.214Z,2.5
2022-11-30T05:51:53.648Z,2.5
2022-11-30T05:55:50.832Z,2.5
2022-11-30T05:57:52.768Z,2.5
2022-11-30T05:59:53.841Z,2.5
2022-11-30T06:01:48.708Z,2.5
2022-11-30T06:05:53.692Z,2.5
2022-11-30T06:07:52.405Z,2.5
2022-11-30T06:11:53.811Z,2.4
2022-11-30T06:13:49.520Z,2.5
2022-11-30T06:15:53.564Z,2.4
2022-11-30T06:17:51.612Z,2.4
2022-11-30T06:19:50.576Z,2.5
2022-11-30T06:21:52.195Z,2.4
2022-11-30T06:25:49.555Z,2.5
2022-11-30T06:29:53.441Z,2.4
2022-11-30T06:31:53.114Z,2.4
2022-11-30T06:35:53.716Z,2.5
2022-11-30T06:37:57.560Z,2.5
2022-11-30T06:40:07.212Z,2.5
2022-11-30T06:41:54.420Z,2.5
2022-11-30T06:43:52.599Z,2.5
2022-11-30T06:45:53.500Z,2.5
2022-11-30T06:47:53.031Z,2.4
2022-11-30T06:49:51.389Z,2.5
2022-11-30T06:53:53.531Z,2.4
2022-11-30T06:55:47.335Z,2.4
2022-11-30T07:03:52.327Z,2.5
2022-11-30T07:05:50.768Z,2.5
2022-11-30T07:12:12.174Z,2.6
2022-11-30T07:17:24.414Z,2.5
2022-11-30T07:19:25.167Z,2.6
2022-11-30T07:25:01.722Z,2.6
2022-11-30T07:26:52.265Z,2.7
2022-11-30T07:28:52.328Z,2.8
2022-11-30T07:33:26.977Z,2.6
2022-11-30T07:40:56.607Z,2.8
2022-11-30T07:42:54.882Z,2.8
2022-11-30T07:44:58.875Z,2.9
2022-11-30T07:46:51.486Z,2.8
2022-11-30T07:48:51.932Z,2.8
2022-11-30T07:50:54.193Z,2.9
2022-11-30T07:52:51.526Z,2.8
2022-11-30T07:54:51.981Z,2.8
2022-11-30T07:56:50.460Z,2.8
2022-11-30T07:58:51.555Z,2.8
2022-11-30T08:00:53.405Z,2.8
2022-11-30T08:02:51.898Z,2.9
2022-11-30T08:04:53.782Z,2.8
2022-11-30T08:06:54.168Z,2.9
2022-11-30T08:08:54.650Z,2.9
2022-11-30T08:10:55.846Z,2.9
2022-11-30T08:12:55.441Z,2.9
2022-11-30T08:15:18.586Z,3
2022-11-30T08:16:50.006Z,3
2022-11-30T08:18:54.046Z,3.1
2022-11-30T08:20:55.873Z,3
2022-11-30T08:22:51.805Z,2.9
2022-11-30T08:24:53.208Z,2.9
2022-11-30T08:26:53.229Z,2.9
2022-11-30T08:28:55.120Z,3
2022-11-30T08:30:54.105Z,3
2022-11-30T08:32:55.506Z,3
2022-11-30T08:34:52.830Z,3.1
2022-11-30T08:36:52.866Z,3.2
2022-11-30T08:38:54.029Z,3.1
2022-11-30T08:40:53.664Z,3.2
2022-11-30T08:42:54.096Z,3.2
2022-11-30T08:44:55.456Z,3.2
2022-11-30T08:46:55.821Z,3.1
2022-11-30T08:49:07.330Z,3.1
2022-11-30T08:50:49.887Z,3
2022-11-30T08:52:49.896Z,3.2
2022-11-30T08:54:55.723Z,3.2
2022-11-30T08:56:49.925Z,3.3
2022-11-30T08:58:52.114Z,3.3
2022-11-30T09:02:54.106Z,3.3
2022-11-30T09:06:51.430Z,3.3
2022-11-30T09:08:53.201Z,3.4
2022-11-30T09:10:55.214Z,3.2
2022-11-30T09:12:49.890Z,3.3
2022-11-30T09:14:57.867Z,3.3
2022-11-30T09:16:55.792Z,3.3
2022-11-30T09:18:52.538Z,3.3
2022-11-30T09:20:49.901Z,3.5
2022-11-30T09:22:49.843Z,3.5
2022-11-30T09:24:54.186Z,3.3
2022-11-30T09:26:55.961Z,3.3
2022-11-30T09:28:49.932Z,3.4
2022-11-30T09:30:56.031Z,3.3
2022-11-30T09:32:50.523Z,3.5
2022-11-30T09:34:55.264Z,3.5
2022-11-30T09:36:50.356Z,3.6
2022-11-30T09:38:54.601Z,3.5
2022-11-30T09:40:55.347Z,3.4
2022-11-30T09:42:54.744Z,3.5
2022-11-30T09:44:52.389Z,3.3
2022-11-30T09:46:51.938Z,3.3
2022-11-30T09:48:54.281Z,3.3
2022-11-30T09:50:55.793Z,3.5
2022-11-30T09:52:53.099Z,3.5
2022-11-30T09:54:52.816Z,3.6
2022-11-30T09:56:53.140Z,3.6
2022-11-30T09:58:51.896Z,3.5
2022-11-30T10:00:54.893Z,3.6
2022-11-30T10:02:52.494Z,3.4
2022-11-30T10:04:50.161Z,3.3
2022-11-30T10:06:51.758Z,3.6
2022-11-30T10:08:51.157Z,3.6
2022-11-30T10:10:53.711Z,3.4
2022-11-30T10:12:55.476Z,3.5
2022-11-30T10:14:51.396Z,3.7
2022-11-30T10:16:55.699Z,3.4
2022-11-30T10:18:49.940Z,3.5
2022-11-30T10:20:49.949Z,3.5
2022-11-30T10:22:49.898Z,3.5
2022-11-30T10:24:51.102Z,3.6
2022-11-30T10:26:52.928Z,3.5
2022-11-30T10:28:52.323Z,3.4
2022-11-30T10:30:50.148Z,3.5
2022-11-30T10:32:55.384Z,3.5
2022-11-30T10:34:53.161Z,3.6
2022-11-30T10:36:52.145Z,3.6
2022-11-30T10:38:54.512Z,3.4
2022-11-30T10:40:49.925Z,3.4
2022-11-30T10:42:49.940Z,3.5
2022-11-30T10:44:54.510Z,3.6
2022-11-30T10:46:53.252Z,3.6
2022-11-30T10:48:49.958Z,3.5
2022-11-30T10:50:54.462Z,3.4
2022-11-30T10:52:55.779Z,3.5
2022-11-30T10:54:51.444Z,3.5
2022-11-30T10:56:49.862Z,3.7
2022-11-30T10:58:49.916Z,3.5
2022-11-30T11:00:49.942Z,3.6
2022-11-30T11:02:55.600Z,3.6
2022-11-30T11:04:51.552Z,3.5
2022-11-30T11:06:53.890Z,3.5
2022-11-30T11:08:49.911Z,3.6
2022-11-30T11:10:49.958Z,3.4
2022-11-30T11:12:49.914Z,3.5
2022-11-30T11:14:52.859Z,3.5
2022-11-30T11:16:51.420Z,3.6
2022-11-30T11:18:53.020Z,3.7
2022-11-30T11:20:55.813Z,3.6
2022-11-30T11:22:49.971Z,3.8
2022-11-30T11:24:54.849Z,3.7
2022-11-30T11:26:54.416Z,3.6
2022-11-30T11:28:52.256Z,3.7
2022-11-30T11:30:49.997Z,3.5
2022-11-30T11:32:54.600Z,3.7
2022-11-30T11:34:51.353Z,3.7
2022-11-30T11:36:55.705Z,3.6
2022-11-30T11:38:52.704Z,3.7
2022-11-30T11:40:55.300Z,3.6
2022-11-30T11:42:49.933Z,3.6
2022-11-30T11:44:51.825Z,3.4
2022-11-30T11:46:56.235Z,3.6
2022-11-30T11:48:51.512Z,3.6
2022-11-30T11:51:07.381Z,3.7
2022-11-30T11:52:52.200Z,3.6
2022-11-30T11:54:49.930Z,3.7
2022-11-30T11:56:59.344Z,3.8
2022-11-30T11:58:55.192Z,3.8
2022-11-30T12:00:57.620Z,3.8
2022-11-30T12:02:49.977Z,3.8
2022-11-30T12:04:50.841Z,3.7
2022-11-30T12:06:52.202Z,3.8
2022-11-30T12:08:49.929Z,3.7
2022-11-30T12:10:56.334Z,3.7
2022-11-30T12:12:54.595Z,3.7
2022-11-30T12:14:55.295Z,3.6
2022-11-30T12:16:53.757Z,3.6
2022-11-30T12:18:51.517Z,3.6
2022-11-30T12:20:53.671Z,3.6
2022-11-30T12:22:50.889Z,3.7
2022-11-30T12:24:59.003Z,3.7
2022-11-30T12:26:53.863Z,3.7
2022-11-30T12:28:55.887Z,3.5
2022-11-30T12:30:55.094Z,3.4
2022-11-30T12:32:52.862Z,3.5
2022-11-30T12:34:56.907Z,3.6
2022-11-30T12:36:55.015Z,3.5
2022-11-30T12:38:51.516Z,3.4
2022-11-30T12:40:49.552Z,3.5
2022-11-30T12:42:49.558Z,3.4
2022-11-30T12:44:56.589Z,3.4
2022-11-30T12:46:55.147Z,3.6
2022-11-30T12:48:52.515Z,3.4
2022-11-30T12:50:52.841Z,3.3
2022-11-30T12:52:55.278Z,3.4
2022-11-30T12:54:52.989Z,3.5
2022-11-30T12:56:52.733Z,3.5
2022-11-30T12:58:53.418Z,3.5
2022-11-30T13:02:39.453Z,3.4
2022-11-30T13:06:37.076Z,3.5
2022-11-30T13:08:38.680Z,3.5
2022-11-30T13:12:32.540Z,3.3
2022-11-30T13:14:39.071Z,3.3
2022-11-30T13:18:26.649Z,3.2
2022-11-30T13:26:38.363Z,3.2
2022-11-30T13:28:36.359Z,3.3
2022-11-30T13:30:38.621Z,3.3
2022-11-30T13:32:57.151Z,3.3
2022-11-30T13:34:36.912Z,3.4
2022-11-30T13:38:38.721Z,3.3
2022-11-30T13:40:31.146Z,3.3
2022-11-30T13:42:38.882Z,3.3
2022-11-30T13:46:26.517Z,3.4
2022-11-30T13:48:38.791Z,3.4
2022-11-30T13:52:29.381Z,3.4
2022-11-30T13:54:39.146Z,3.3
2022-11-30T13:58:33.875Z,3.3
2022-11-30T14:00:38.704Z,3.3
2022-11-30T14:04:28.302Z,3.2
2022-11-30T14:06:38.695Z,3.1
2022-11-30T14:08:38.589Z,3.1
2022-11-30T14:10:34.971Z,3.1
2022-11-30T14:12:32.817Z,3.1
2022-11-30T14:14:43.538Z,3.1
2022-11-30T14:16:33.680Z,3.2
2022-11-30T14:18:36.765Z,3.1
2022-11-30T14:22:30.913Z,3.1
2022-11-30T14:26:38.618Z,3.1
2022-11-30T14:28:29.934Z,3
2022-11-30T14:34:29.274Z,3.1
2022-11-30T14:36:38.622Z,3
2022-11-30T14:40:27.531Z,3
2022-11-30T14:42:38.625Z,3
2022-11-30T14:46:29.099Z,2.9
2022-11-30T14:52:33.445Z,2.9
2022-11-30T14:58:26.452Z,2.9
2022-11-30T15:04:36.418Z,2.9
2022-11-30T15:08:38.770Z,2.8
2022-11-30T15:10:29.834Z,2.8
2022-11-30T15:12:38.445Z,2.8
2022-11-30T15:16:37.186Z,2.8
2022-11-30T15:18:38.117Z,2.7
2022-11-30T15:20:37.673Z,2.7
2022-11-30T15:22:28.183Z,2.7
2022-11-30T15:28:26.592Z,2.8
2022-11-30T15:30:37.567Z,2.8
2022-11-30T15:32:38.476Z,2.8
2022-11-30T15:34:29.725Z,2.8
2022-11-30T15:36:33.235Z,2.7
2022-11-30T15:40:26.468Z,2.6
2022-11-30T15:42:38.862Z,2.6
2022-11-30T15:46:29.250Z,2.6
2022-11-30T15:50:31.217Z,2.6
2022-11-30T15:54:38.821Z,2.6
2022-11-30T15:56:36.987Z,2.5
2022-11-30T16:00:38.436Z,2.5
2022-11-30T16:02:26.846Z,2.5
2022-11-30T16:04:38.931Z,2.5
2022-11-30T16:06:37.985Z,2.5
2022-11-30T16:08:26.583Z,2.5
2022-11-30T16:10:38.395Z,2.5
2022-11-30T16:12:39.415Z,2.5
2022-11-30T16:14:29.763Z,2.4
2022-11-30T16:16:38.629Z,2.5
2022-11-30T16:18:38.648Z,2.4
2022-11-30T16:20:30.345Z,2.4
2022-11-30T16:22:38.987Z,2.4
2022-11-30T16:24:38.645Z,2.5
2022-11-30T16:26:49.766Z,2.5
2022-11-30T16:28:32.964Z,2.5
2022-11-30T16:32:27.477Z,2.4
2022-11-30T16:36:38.301Z,2.4
2022-11-30T16:38:28.408Z,2.4
2022-11-30T16:40:35.362Z,2.4
2022-11-30T16:44:29.529Z,2.4
2022-11-30T16:46:38.906Z,2.5
2022-11-30T16:48:38.735Z,2.3
2022-11-30T16:50:29.369Z,2.3
2022-11-30T16:52:39.259Z,2.3
2022-11-30T16:56:28.428Z,2.3
2022-11-30T17:02:28.654Z,2.4
2022-11-30T17:04:35.423Z,2.4
2022-11-30T17:08:30.897Z,2.3
2022-11-30T17:10:39.091Z,2.3
2022-11-30T17:12:38.859Z,2.3
2022-11-30T17:14:28.493Z,2.3
2022-11-30T17:16:38.704Z,2.2
2022-11-30T17:20:27.163Z,2.2
2022-11-30T17:22:38.729Z,2.2
2022-11-30T17:26:29.795Z,2.3
2022-11-30T17:28:39.137Z,2.2
2022-11-30T17:30:33.268Z,2.2
2022-11-30T17:32:32.794Z,2.2
2022-11-30T17:34:35.647Z,2.2
2022-11-30T17:36:39.366Z,2.2
2022-11-30T17:38:33.341Z,2.3
2022-11-30T17:44:29.858Z,2.2
2022-11-30T17:48:38.520Z,2.2
2022-11-30T17:50:30.347Z,2.2
2022-11-30T17:52:39.406Z,2.2
2022-11-30T17:54:30.004Z,2.2
2022-11-30T17:56:35.867Z,2.1
2022-11-30T18:00:29.656Z,2.2
2022-11-30T18:02:29.698Z,2.2
2022-11-30T18:06:37.834Z,2.1
2022-11-30T18:08:33.189Z,2
2022-11-30T18:14:37.762Z,2.1
2022-11-30T18:20:38.605Z,2
2022-11-30T18:22:37.913Z,2.1
2022-11-30T18:26:40.293Z,2
2022-11-30T18:35:51.666Z,2.2
2022-11-30T18:40:55.433Z,2
2022-11-30T18:42:50.227Z,2.1
2022-11-30T18:44:51.435Z,2.1
2022-11-30T18:46:50.386Z,2.1
2022-11-30T18:48:50.287Z,2.1
2022-11-30T18:50:51.430Z,2.2
2022-11-30T18:52:50.131Z,2
2022-11-30T18:54:51.602Z,2
2022-11-30T18:56:50.120Z,2
2022-11-30T18:58:53.241Z,2
2022-11-30T19:00:52.995Z,2
2022-11-30T19:02:50.742Z,2
2022-11-30T19:04:50.438Z,2
2022-11-30T19:06:50.645Z,1.9
2022-11-30T19:08:50.107Z,2
2022-11-30T19:12:51.421Z,2.1
2022-11-30T19:16:50.581Z,2
2022-11-30T19:18:53.454Z,1.9
2022-11-30T19:20:50.796Z,2
2022-11-30T19:22:51.500Z,2
2022-11-30T19:24:50.472Z,2
2022-11-30T19:26:53.539Z,2
2022-11-30T19:28:53.435Z,2
2022-11-30T19:30:53.032Z,2
2022-11-30T19:32:50.114Z,1.9
2022-11-30T19:34:53.846Z,2
2022-11-30T19:36:50.170Z,2
2022-11-30T19:38:51.679Z,2
2022-11-30T19:40:50.124Z,1.9
2022-11-30T19:46:51.417Z,2
2022-11-30T19:48:57.074Z,1.9
2022-11-30T19:51:00.217Z,1.9
2022-11-30T19:52:53.079Z,2
2022-11-30T19:54:50.310Z,2
2022-11-30T19:56:50.118Z,2
2022-11-30T19:58:50.668Z,2
2022-11-30T20:00:50.140Z,2
2022-11-30T20:02:50.199Z,2
2022-11-30T20:04:50.394Z,2.1
2022-11-30T20:06:50.145Z,2
2022-11-30T20:08:52.800Z,1.9
2022-11-30T20:10:53.966Z,2
2022-11-30T20:12:50.398Z,1.9
2022-11-30T20:14:50.407Z,1.9
2022-11-30T20:16:51.472Z,2
2022-11-30T20:18:56.851Z,2
2022-11-30T20:20:50.581Z,1.9
2022-11-30T20:22:50.183Z,1.9
2022-11-30T20:26:50.126Z,2
2022-11-30T20:28:50.147Z,1.9
2022-11-30T20:30:50.365Z,2
2022-11-30T20:32:50.178Z,2
2022-11-30T20:34:50.242Z,2
2022-11-30T20:36:50.594Z,1.9
2022-11-30T20:38:51.468Z,1.9
2022-11-30T20:40:51.434Z,2
2022-11-30T20:42:50.497Z,2
2022-11-30T20:44:50.332Z,2
2022-11-30T20:46:50.559Z,2
2022-11-30T20:48:51.097Z,2
2022-11-30T20:51:07.541Z,2
2022-11-30T20:52:53.003Z,2
2022-11-30T20:54:50.455Z,1.9
2022-11-30T20:56:51.232Z,2
2022-11-30T20:58:53.944Z,1.9
2022-11-30T21:00:50.174Z,1.9
2022-11-30T21:02:51.026Z,2
2022-11-30T21:04:50.353Z,1.9
2022-11-30T21:06:50.616Z,1.9
2022-11-30T21:08:50.198Z,1.9
2022-11-30T21:10:50.658Z,1.9
2022-11-30T21:12:51.471Z,2
2022-11-30T21:14:50.757Z,1.9
2022-11-30T21:16:50.169Z,1.9
2022-11-30T21:18:51.499Z,1.8
2022-11-30T21:20:50.164Z,1.8
2022-11-30T21:22:53.316Z,1.8
2022-11-30T21:24:50.780Z,1.8
2022-11-30T21:26:50.184Z,1.8
2022-11-30T21:28:58.490Z,1.8
2022-11-30T21:30:51.502Z,1.8
2022-11-30T21:32:50.148Z,1.8
2022-11-30T21:34:51.483Z,1.7
2022-11-30T21:38:50.136Z,1.8
2022-11-30T21:40:57.098Z,1.9
2022-11-30T21:42:52.995Z,1.8
2022-11-30T21:44:57.166Z,1.8
2022-11-30T21:46:52.901Z,1.8
2022-11-30T21:48:57.017Z,1.8
2022-11-30T21:50:51.431Z,1.7
2022-11-30T21:52:50.557Z,1.7
2022-11-30T21:54:52.920Z,1.7
2022-11-30T21:57:01.239Z,1.8
2022-11-30T21:58:53.801Z,1.6
2022-11-30T22:00:50.168Z,1.5
2022-11-30T22:02:50.225Z,1.6
2022-11-30T22:04:53.072Z,1.7
2022-11-30T22:06:50.621Z,1.7
2022-11-30T22:08:51.508Z,1.6
2022-11-30T22:10:50.172Z,1.5
2022-11-30T22:12:50.167Z,1.5
2022-11-30T22:14:50.589Z,1.5
2022-11-30T22:18:50.140Z,1.5
2022-11-30T22:20:50.602Z,1.5
2022-11-30T22:22:50.216Z,1.6
2022-11-30T22:24:50.703Z,1.5
2022-11-30T22:26:50.177Z,1.5
2022-11-30T22:28:50.168Z,1.5
2022-11-30T22:30:50.190Z,1.4
2022-11-30T22:32:52.802Z,1.5
2022-11-30T22:34:50.262Z,1.5
2022-11-30T22:36:50.187Z,1.4
2022-11-30T22:38:50.195Z,1.3
2022-11-30T22:40:50.134Z,1.3
2022-11-30T22:42:50.137Z,1.4
2022-11-30T22:44:50.644Z,1.3
2022-11-30T22:46:51.558Z,1.4
2022-11-30T22:48:50.174Z,1.4
2022-11-30T22:50:50.545Z,1.3
2022-11-30T22:53:02.310Z,1.3
2022-11-30T22:54:51.198Z,1.4
2022-11-30T22:56:50.903Z,1.3
2022-11-30T22:58:50.173Z,1.3
2022-11-30T23:00:50.237Z,1.3
2022-11-30T23:02:50.207Z,1.3
2022-11-30T23:04:51.022Z,1.3
2022-11-30T23:06:50.162Z,1.3
2022-11-30T23:08:50.248Z,1.2
2022-11-30T23:10:50.238Z,1.2
2022-11-30T23:12:59.337Z,1.2
2022-11-30T23:14:50.161Z,1.2
2022-11-30T23:16:50.195Z,1.3
2022-11-30T23:18:50.335Z,1.3
2022-11-30T23:20:50.635Z,1.2
2022-11-30T23:22:50.152Z,1.2
2022-11-30T23:24:50.644Z,1.2
2022-11-30T23:26:51.492Z,1.1
2022-11-30T23:28:50.168Z,1.2
2022-11-30T23:30:50.178Z,1.3
2022-11-30T23:32:50.142Z,1.2
2022-11-30T23:34:50.843Z,1.2
2022-11-30T23:36:50.616Z,1.3
2022-11-30T23:38:53.009Z,1.3
2022-11-30T23:40:50.204Z,1.3
2022-11-30T23:42:50.159Z,1.2
2022-11-30T23:44:50.284Z,1.3
2022-11-30T23:46:50.225Z,1.3
2022-11-30T23:48:52.822Z,1.3
2022-11-30T23:50:50.628Z,1.3
2022-11-30T23:52:50.170Z,1.3
2022-11-30T23:54:51.441Z,1.3
2022-11-30T23:56:50.185Z,1.3
2022-11-30T23:58:51.473Z,1.3
